sensor_id;sensor_type;location;lat;lon;timestamp;P1;durP1;ratioP1;P2;durP2;ratioP2
25667;SDS011;18003;-33.830;151.202;2022-11-20T00:00:52;2.40;;;1.72;;
25667;SDS011;18003;-33.830;151.202;2022-11-20T00:03:27;1.80;;;1.70;;
25667;SDS011;18003;-33.830;151.202;2022-11-20T00:08:28;9.95;;;1.72;;
25667;SDS011;18003;-33.830;151.202;2022-11-20T00:13:37;3.45;;;1.32;;
25667;SDS011;18003;-33.830;151.202;2022-11-20T00:18:57;1.92;;;1.40;;
25667;SDS011;18003;-33.830;151.202;2022-11-20T00:21:43;1.50;;;1.40;;
25667;SDS011;18003;-33.830;151.202;2022-11-20T00:24:02;2.15;;;1.50;;
25667;SDS011;18003;-33.830;151.202;2022-11-20T00:26:35;1.87;;;1.57;;
25667;SDS011;18003;-33.830;151.202;2022-11-20T00:29:11;2.33;;;1.50;;
25667;SDS011;18003;-33.830;151.202;2022-11-20T00:31:59;1.90;;;1.70;;
25667;SDS011;18003;-33.830;151.202;2022-11-20T00:34:25;4.22;;;1.65;;
25667;SDS011;18003;-33.830;151.202;2022-11-20T00:36:55;3.22;;;1.62;;
25667;SDS011;18003;-33.830;151.202;2022-11-20T00:39:25;1.67;;;1.57;;
25667;SDS011;18003;-33.830;151.202;2022-11-20T00:41:56;2.10;;;1.50;;
25667;SDS011;18003;-33.830;151.202;2022-11-20T00:44:26;3.50;;;1.62;;
25667;SDS011;18003;-33.830;151.202;2022-11-20T00:46:57;2.92;;;1.32;;
25667;SDS011;18003;-33.830;151.202;2022-11-20T00:49:27;4.22;;;1.40;;
25667;SDS011;18003;-33.830;151.202;2022-11-20T00:51:57;1.20;;;1.20;;
25667;SDS011;18003;-33.830;151.202;2022-11-20T00:54:27;2.12;;;1.50;;
25667;SDS011;18003;-33.830;151.202;2022-11-20T00:56:58;1.70;;;1.60;;
25667;SDS011;18003;-33.830;151.202;2022-11-20T00:59:28;1.22;;;1.12;;
25667;SDS011;18003;-33.830;151.202;2022-11-20T01:01:58;5.00;;;1.70;;
25667;SDS011;18003;-33.830;151.202;2022-11-20T01:04:28;1.70;;;1.35;;
25667;SDS011;18003;-33.830;151.202;2022-11-20T01:06:58;2.12;;;1.52;;
25667;SDS011;18003;-33.830;151.202;2022-11-20T01:09:28;2.05;;;1.32;;
25667;SDS011;18003;-33.830;151.202;2022-11-20T01:11:58;5.22;;;2.35;;
25667;SDS011;18003;-33.830;151.202;2022-11-20T01:14:28;5.28;;;3.10;;
25667;SDS011;18003;-33.830;151.202;2022-11-20T01:16:58;2.22;;;1.70;;
25667;SDS011;18003;-33.830;151.202;2022-11-20T01:19:28;2.05;;;1.70;;
25667;SDS011;18003;-33.830;151.202;2022-11-20T01:21:58;1.82;;;1.60;;
25667;SDS011;18003;-33.830;151.202;2022-11-20T01:24:30;2.58;;;1.60;;
25667;SDS011;18003;-33.830;151.202;2022-11-20T01:27:00;2.95;;;1.85;;
25667;SDS011;18003;-33.830;151.202;2022-11-20T01:29:30;2.22;;;1.70;;
25667;SDS011;18003;-33.830;151.202;2022-11-20T01:32:00;2.72;;;1.22;;
25667;SDS011;18003;-33.830;151.202;2022-11-20T01:34:30;2.02;;;1.20;;
25667;SDS011;18003;-33.830;151.202;2022-11-20T01:37:01;2.33;;;1.27;;
25667;SDS011;18003;-33.830;151.202;2022-11-20T01:39:31;2.70;;;1.27;;
25667;SDS011;18003;-33.830;151.202;2022-11-20T01:42:01;1.95;;;1.50;;
25667;SDS011;18003;-33.830;151.202;2022-11-20T01:44:53;5.47;;;1.40;;
25667;SDS011;18003;-33.830;151.202;2022-11-20T01:47:25;2.45;;;1.60;;
25667;SDS011;18003;-33.830;151.202;2022-11-20T01:50:05;1.67;;;1.57;;
25667;SDS011;18003;-33.830;151.202;2022-11-20T01:52:41;3.22;;;1.90;;
25667;SDS011;18003;-33.830;151.202;2022-11-20T01:55:15;4.28;;;1.92;;
25667;SDS011;18003;-33.830;151.202;2022-11-20T01:57:45;2.00;;;1.80;;
25667;SDS011;18003;-33.830;151.202;2022-11-20T02:00:17;2.15;;;1.55;;
25667;SDS011;18003;-33.830;151.202;2022-11-20T02:02:49;4.47;;;2.00;;
25667;SDS011;18003;-33.830;151.202;2022-11-20T02:05:23;1.77;;;1.67;;
25667;SDS011;18003;-33.830;151.202;2022-11-20T02:07:57;4.45;;;1.80;;
25667;SDS011;18003;-33.830;151.202;2022-11-20T02:10:29;2.52;;;1.50;;
25667;SDS011;18003;-33.830;151.202;2022-11-20T02:13:00;1.50;;;1.40;;
25667;SDS011;18003;-33.830;151.202;2022-11-20T02:15:47;1.90;;;1.60;;
25667;SDS011;18003;-33.830;151.202;2022-11-20T02:18:19;2.25;;;1.90;;
25667;SDS011;18003;-33.830;151.202;2022-11-20T02:20:50;4.03;;;1.70;;
25667;SDS011;18003;-33.830;151.202;2022-11-20T02:26:02;1.50;;;1.40;;
25667;SDS011;18003;-33.830;151.202;2022-11-20T02:28:35;1.80;;;1.70;;
25667;SDS011;18003;-33.830;151.202;2022-11-20T02:31:05;1.80;;;1.70;;
25667;SDS011;18003;-33.830;151.202;2022-11-20T02:33:35;8.80;;;2.08;;
25667;SDS011;18003;-33.830;151.202;2022-11-20T02:36:06;2.67;;;1.75;;
25667;SDS011;18003;-33.830;151.202;2022-11-20T02:38:37;2.05;;;1.87;;
25667;SDS011;18003;-33.830;151.202;2022-11-20T02:41:07;2.22;;;1.80;;
25667;SDS011;18003;-33.830;151.202;2022-11-20T02:43:37;4.83;;;2.70;;
25667;SDS011;18003;-33.830;151.202;2022-11-20T02:46:07;3.87;;;3.08;;
25667;SDS011;18003;-33.830;151.202;2022-11-20T02:48:37;2.90;;;2.62;;
25667;SDS011;18003;-33.830;151.202;2022-11-20T02:51:07;4.50;;;2.83;;
25667;SDS011;18003;-33.830;151.202;2022-11-20T02:53:37;4.97;;;3.15;;
25667;SDS011;18003;-33.830;151.202;2022-11-20T02:56:07;5.83;;;2.75;;
25667;SDS011;18003;-33.830;151.202;2022-11-20T02:58:37;7.33;;;3.25;;
25667;SDS011;18003;-33.830;151.202;2022-11-20T03:01:07;3.00;;;2.70;;
25667;SDS011;18003;-33.830;151.202;2022-11-20T03:03:37;4.17;;;2.80;;
25667;SDS011;18003;-33.830;151.202;2022-11-20T03:06:07;3.55;;;2.75;;
25667;SDS011;18003;-33.830;151.202;2022-11-20T03:08:37;3.02;;;2.58;;
25667;SDS011;18003;-33.830;151.202;2022-11-20T03:11:07;2.52;;;1.92;;
25667;SDS011;18003;-33.830;151.202;2022-11-20T03:13:38;3.15;;;2.47;;
25667;SDS011;18003;-33.830;151.202;2022-11-20T03:16:08;3.12;;;2.12;;
25667;SDS011;18003;-33.830;151.202;2022-11-20T03:18:46;2.52;;;2.30;;
25667;SDS011;18003;-33.830;151.202;2022-11-20T03:21:16;2.42;;;2.22;;
25667;SDS011;18003;-33.830;151.202;2022-11-20T03:23:46;2.77;;;2.10;;
25667;SDS011;18003;-33.830;151.202;2022-11-20T03:26:19;4.22;;;2.17;;
25667;SDS011;18003;-33.830;151.202;2022-11-20T03:28:51;4.00;;;2.30;;
25667;SDS011;18003;-33.830;151.202;2022-11-20T03:31:29;2.25;;;1.50;;
25667;SDS011;18003;-33.830;151.202;2022-11-20T03:33:55;3.10;;;2.08;;
25667;SDS011;18003;-33.830;151.202;2022-11-20T03:36:26;3.10;;;1.80;;
25667;SDS011;18003;-33.830;151.202;2022-11-20T03:38:56;2.42;;;2.15;;
25667;SDS011;18003;-33.830;151.202;2022-11-20T03:41:27;2.65;;;2.33;;
25667;SDS011;18003;-33.830;151.202;2022-11-20T03:43:59;1.95;;;1.85;;
25667;SDS011;18003;-33.830;151.202;2022-11-20T03:46:30;22.85;;;2.47;;
25667;SDS011;18003;-33.830;151.202;2022-11-20T03:49:01;4.15;;;1.80;;
25667;SDS011;18003;-33.830;151.202;2022-11-20T03:51:32;2.22;;;1.80;;
25667;SDS011;18003;-33.830;151.202;2022-11-20T03:54:06;1.75;;;1.60;;
25667;SDS011;18003;-33.830;151.202;2022-11-20T03:56:37;2.85;;;1.92;;
25667;SDS011;18003;-33.830;151.202;2022-11-20T03:59:09;1.70;;;1.60;;
25667;SDS011;18003;-33.830;151.202;2022-11-20T04:01:38;2.05;;;1.65;;
25667;SDS011;18003;-33.830;151.202;2022-11-20T04:04:08;1.90;;;1.57;;
25667;SDS011;18003;-33.830;151.202;2022-11-20T04:06:38;1.82;;;1.40;;
25667;SDS011;18003;-33.830;151.202;2022-11-20T04:09:08;3.42;;;1.40;;
25667;SDS011;18003;-33.830;151.202;2022-11-20T04:11:39;2.55;;;1.82;;
25667;SDS011;18003;-33.830;151.202;2022-11-20T04:14:13;1.70;;;1.60;;
25667;SDS011;18003;-33.830;151.202;2022-11-20T04:16:43;2.45;;;1.70;;
25667;SDS011;18003;-33.830;151.202;2022-11-20T04:19:14;2.45;;;1.10;;
25667;SDS011;18003;-33.830;151.202;2022-11-20T04:21:45;3.58;;;1.50;;
25667;SDS011;18003;-33.830;151.202;2022-11-20T04:24:15;1.00;;;1.00;;
25667;SDS011;18003;-33.830;151.202;2022-11-20T04:26:45;1.42;;;1.32;;
25667;SDS011;18003;-33.830;151.202;2022-11-20T04:29:15;1.70;;;1.60;;
25667;SDS011;18003;-33.830;151.202;2022-11-20T04:31:44;1.70;;;1.37;;
25667;SDS011;18003;-33.830;151.202;2022-11-20T04:34:15;2.00;;;1.50;;
25667;SDS011;18003;-33.830;151.202;2022-11-20T04:36:45;1.50;;;1.40;;
25667;SDS011;18003;-33.830;151.202;2022-11-20T04:39:18;2.83;;;1.60;;
25667;SDS011;18003;-33.830;151.202;2022-11-20T04:41:45;2.60;;;1.40;;
25667;SDS011;18003;-33.830;151.202;2022-11-20T04:44:16;1.50;;;1.40;;
25667;SDS011;18003;-33.830;151.202;2022-11-20T04:46:46;1.90;;;1.70;;
25667;SDS011;18003;-33.830;151.202;2022-11-20T04:49:15;2.55;;;1.50;;
25667;SDS011;18003;-33.830;151.202;2022-11-20T04:51:45;2.27;;;1.90;;
25667;SDS011;18003;-33.830;151.202;2022-11-20T04:54:21;1.50;;;1.40;;
25667;SDS011;18003;-33.830;151.202;2022-11-20T04:56:50;2.20;;;2.00;;
25667;SDS011;18003;-33.830;151.202;2022-11-20T04:59:19;2.30;;;2.10;;
25667;SDS011;18003;-33.830;151.202;2022-11-20T05:01:49;2.58;;;1.80;;
25667;SDS011;18003;-33.830;151.202;2022-11-20T05:04:19;2.47;;;1.90;;
25667;SDS011;18003;-33.830;151.202;2022-11-20T05:06:49;1.62;;;1.50;;
25667;SDS011;18003;-33.830;151.202;2022-11-20T05:09:19;1.85;;;1.70;;
25667;SDS011;18003;-33.830;151.202;2022-11-20T05:11:49;2.55;;;1.62;;
25667;SDS011;18003;-33.830;151.202;2022-11-20T05:14:19;1.70;;;1.60;;
25667;SDS011;18003;-33.830;151.202;2022-11-20T05:16:48;1.60;;;1.50;;
25667;SDS011;18003;-33.830;151.202;2022-11-20T05:19:18;1.85;;;1.62;;
25667;SDS011;18003;-33.830;151.202;2022-11-20T05:21:48;1.60;;;1.50;;
25667;SDS011;18003;-33.830;151.202;2022-11-20T05:24:18;2.98;;;1.60;;
25667;SDS011;18003;-33.830;151.202;2022-11-20T05:26:47;2.40;;;1.70;;
25667;SDS011;18003;-33.830;151.202;2022-11-20T05:29:17;1.90;;;1.80;;
25667;SDS011;18003;-33.830;151.202;2022-11-20T05:31:47;1.67;;;1.50;;
25667;SDS011;18003;-33.830;151.202;2022-11-20T05:34:17;1.60;;;1.50;;
25667;SDS011;18003;-33.830;151.202;2022-11-20T05:36:48;1.67;;;1.50;;
25667;SDS011;18003;-33.830;151.202;2022-11-20T05:39:18;4.83;;;1.50;;
25667;SDS011;18003;-33.830;151.202;2022-11-20T05:41:48;1.52;;;1.42;;
25667;SDS011;18003;-33.830;151.202;2022-11-20T05:44:19;2.10;;;1.30;;
25667;SDS011;18003;-33.830;151.202;2022-11-20T05:46:49;3.40;;;1.70;;
25667;SDS011;18003;-33.830;151.202;2022-11-20T05:49:19;2.27;;;1.30;;
25667;SDS011;18003;-33.830;151.202;2022-11-20T05:51:49;1.77;;;1.52;;
25667;SDS011;18003;-33.830;151.202;2022-11-20T05:54:19;1.47;;;1.40;;
25667;SDS011;18003;-33.830;151.202;2022-11-20T05:56:49;1.42;;;1.30;;
25667;SDS011;18003;-33.830;151.202;2022-11-20T05:59:19;1.57;;;1.47;;
25667;SDS011;18003;-33.830;151.202;2022-11-20T06:01:49;2.75;;;1.60;;
25667;SDS011;18003;-33.830;151.202;2022-11-20T06:04:19;1.60;;;1.50;;
25667;SDS011;18003;-33.830;151.202;2022-11-20T06:06:49;1.60;;;1.50;;
25667;SDS011;18003;-33.830;151.202;2022-11-20T06:09:19;1.90;;;1.40;;
25667;SDS011;18003;-33.830;151.202;2022-11-20T06:11:49;1.98;;;1.77;;
25667;SDS011;18003;-33.830;151.202;2022-11-20T06:14:19;1.98;;;1.47;;
25667;SDS011;18003;-33.830;151.202;2022-11-20T06:16:49;2.10;;;1.30;;
25667;SDS011;18003;-33.830;151.202;2022-11-20T06:19:19;3.00;;;1.50;;
25667;SDS011;18003;-33.830;151.202;2022-11-20T06:21:49;1.60;;;1.47;;
25667;SDS011;18003;-33.830;151.202;2022-11-20T06:24:19;5.95;;;1.20;;
25667;SDS011;18003;-33.830;151.202;2022-11-20T06:26:49;1.40;;;1.30;;
25667;SDS011;18003;-33.830;151.202;2022-11-20T06:29:19;1.60;;;1.30;;
25667;SDS011;18003;-33.830;151.202;2022-11-20T06:31:49;1.55;;;1.45;;
25667;SDS011;18003;-33.830;151.202;2022-11-20T06:34:19;1.42;;;1.30;;
25667;SDS011;18003;-33.830;151.202;2022-11-20T06:36:49;1.95;;;1.42;;
25667;SDS011;18003;-33.830;151.202;2022-11-20T06:39:20;1.95;;;1.20;;
25667;SDS011;18003;-33.830;151.202;2022-11-20T06:41:50;1.65;;;0.93;;
25667;SDS011;18003;-33.830;151.202;2022-11-20T06:44:20;1.17;;;1.00;;
25667;SDS011;18003;-33.830;151.202;2022-11-20T06:46:50;3.40;;;1.30;;
25667;SDS011;18003;-33.830;151.202;2022-11-20T06:49:20;1.85;;;1.12;;
25667;SDS011;18003;-33.830;151.202;2022-11-20T06:51:51;1.33;;;1.20;;
25667;SDS011;18003;-33.830;151.202;2022-11-20T06:54:21;1.35;;;1.25;;
25667;SDS011;18003;-33.830;151.202;2022-11-20T06:56:51;1.47;;;1.25;;
25667;SDS011;18003;-33.830;151.202;2022-11-20T06:59:21;2.65;;;1.20;;
25667;SDS011;18003;-33.830;151.202;2022-11-20T07:01:51;3.27;;;1.47;;
25667;SDS011;18003;-33.830;151.202;2022-11-20T07:04:21;1.32;;;1.15;;
25667;SDS011;18003;-33.830;151.202;2022-11-20T07:06:51;1.95;;;1.25;;
25667;SDS011;18003;-33.830;151.202;2022-11-20T07:09:21;1.32;;;0.90;;
25667;SDS011;18003;-33.830;151.202;2022-11-20T07:11:51;4.17;;;0.95;;
25667;SDS011;18003;-33.830;151.202;2022-11-20T07:14:21;1.10;;;1.00;;
25667;SDS011;18003;-33.830;151.202;2022-11-20T07:16:51;1.20;;;1.10;;
25667;SDS011;18003;-33.830;151.202;2022-11-20T07:19:21;7.05;;;1.20;;
25667;SDS011;18003;-33.830;151.202;2022-11-20T07:21:51;2.58;;;1.20;;
25667;SDS011;18003;-33.830;151.202;2022-11-20T07:24:21;2.67;;;0.90;;
25667;SDS011;18003;-33.830;151.202;2022-11-20T07:26:51;0.90;;;0.90;;
25667;SDS011;18003;-33.830;151.202;2022-11-20T07:29:20;1.70;;;1.20;;
25667;SDS011;18003;-33.830;151.202;2022-11-20T07:31:51;1.42;;;1.07;;
25667;SDS011;18003;-33.830;151.202;2022-11-20T07:34:22;5.70;;;1.52;;
25667;SDS011;18003;-33.830;151.202;2022-11-20T07:36:52;5.72;;;1.57;;
25667;SDS011;18003;-33.830;151.202;2022-11-20T07:39:22;4.72;;;1.30;;
25667;SDS011;18003;-33.830;151.202;2022-11-20T07:41:52;5.62;;;1.40;;
25667;SDS011;18003;-33.830;151.202;2022-11-20T07:44:22;1.90;;;1.32;;
25667;SDS011;18003;-33.830;151.202;2022-11-20T07:46:52;2.85;;;1.40;;
25667;SDS011;18003;-33.830;151.202;2022-11-20T07:49:22;1.85;;;1.20;;
25667;SDS011;18003;-33.830;151.202;2022-11-20T07:51:52;1.42;;;1.17;;
25667;SDS011;18003;-33.830;151.202;2022-11-20T07:54:23;1.25;;;1.15;;
25667;SDS011;18003;-33.830;151.202;2022-11-20T07:56:53;1.40;;;1.30;;
25667;SDS011;18003;-33.830;151.202;2022-11-20T07:59:23;4.42;;;1.40;;
25667;SDS011;18003;-33.830;151.202;2022-11-20T08:01:53;4.05;;;1.40;;
25667;SDS011;18003;-33.830;151.202;2022-11-20T08:04:23;3.98;;;1.30;;
25667;SDS011;18003;-33.830;151.202;2022-11-20T08:06:53;1.50;;;1.40;;
25667;SDS011;18003;-33.830;151.202;2022-11-20T08:09:23;4.10;;;1.60;;
25667;SDS011;18003;-33.830;151.202;2022-11-20T08:11:53;2.33;;;1.20;;
25667;SDS011;18003;-33.830;151.202;2022-11-20T08:14:40;2.77;;;1.35;;
25667;SDS011;18003;-33.830;151.202;2022-11-20T08:17:10;1.47;;;1.30;;
25667;SDS011;18003;-33.830;151.202;2022-11-20T08:19:40;2.47;;;1.30;;
25667;SDS011;18003;-33.830;151.202;2022-11-20T08:22:10;2.00;;;1.22;;
25667;SDS011;18003;-33.830;151.202;2022-11-20T08:24:40;1.85;;;1.10;;
25667;SDS011;18003;-33.830;151.202;2022-11-20T08:27:10;1.95;;;1.60;;
25667;SDS011;18003;-33.830;151.202;2022-11-20T08:29:40;1.50;;;1.40;;
25667;SDS011;18003;-33.830;151.202;2022-11-20T08:32:10;1.52;;;1.40;;
25667;SDS011;18003;-33.830;151.202;2022-11-20T08:34:40;1.27;;;1.12;;
25667;SDS011;18003;-33.830;151.202;2022-11-20T08:37:10;1.65;;;1.20;;
25667;SDS011;18003;-33.830;151.202;2022-11-20T08:39:40;1.20;;;1.10;;
25667;SDS011;18003;-33.830;151.202;2022-11-20T08:42:11;2.42;;;1.20;;
25667;SDS011;18003;-33.830;151.202;2022-11-20T08:44:41;1.42;;;1.10;;
25667;SDS011;18003;-33.830;151.202;2022-11-20T08:47:11;4.35;;;1.10;;
25667;SDS011;18003;-33.830;151.202;2022-11-20T08:49:41;2.05;;;1.00;;
25667;SDS011;18003;-33.830;151.202;2022-11-20T08:52:11;2.67;;;1.10;;
25667;SDS011;18003;-33.830;151.202;2022-11-20T08:54:41;1.40;;;0.90;;
25667;SDS011;18003;-33.830;151.202;2022-11-20T08:57:11;1.17;;;0.90;;
25667;SDS011;18003;-33.830;151.202;2022-11-20T08:59:40;1.52;;;1.02;;
25667;SDS011;18003;-33.830;151.202;2022-11-20T09:02:10;1.20;;;1.10;;
25667;SDS011;18003;-33.830;151.202;2022-11-20T09:04:40;1.30;;;1.20;;
25667;SDS011;18003;-33.830;151.202;2022-11-20T09:07:10;1.00;;;1.00;;
25667;SDS011;18003;-33.830;151.202;2022-11-20T09:09:40;2.83;;;1.00;;
25667;SDS011;18003;-33.830;151.202;2022-11-20T09:12:10;1.47;;;1.07;;
25667;SDS011;18003;-33.830;151.202;2022-11-20T09:14:40;1.75;;;1.10;;
25667;SDS011;18003;-33.830;151.202;2022-11-20T09:17:10;1.50;;;1.00;;
25667;SDS011;18003;-33.830;151.202;2022-11-20T09:19:41;1.30;;;1.10;;
25667;SDS011;18003;-33.830;151.202;2022-11-20T09:22:11;2.15;;;1.30;;
25667;SDS011;18003;-33.830;151.202;2022-11-20T09:24:40;2.17;;;1.40;;
25667;SDS011;18003;-33.830;151.202;2022-11-20T09:27:10;2.67;;;1.25;;
25667;SDS011;18003;-33.830;151.202;2022-11-20T09:29:40;1.52;;;1.00;;
25667;SDS011;18003;-33.830;151.202;2022-11-20T09:32:10;2.92;;;1.30;;
25667;SDS011;18003;-33.830;151.202;2022-11-20T09:34:40;3.17;;;1.30;;
25667;SDS011;18003;-33.830;151.202;2022-11-20T09:37:10;4.87;;;1.45;;
25667;SDS011;18003;-33.830;151.202;2022-11-20T09:39:40;2.40;;;1.80;;
25667;SDS011;18003;-33.830;151.202;2022-11-20T09:42:14;1.65;;;1.50;;
25667;SDS011;18003;-33.830;151.202;2022-11-20T09:45:18;2.90;;;1.60;;
25667;SDS011;18003;-33.830;151.202;2022-11-20T09:48:08;2.70;;;1.40;;
25667;SDS011;18003;-33.830;151.202;2022-11-20T09:53:29;1.35;;;1.22;;
25667;SDS011;18003;-33.830;151.202;2022-11-20T09:56:01;1.52;;;1.20;;
25667;SDS011;18003;-33.830;151.202;2022-11-20T09:58:41;2.87;;;1.50;;
25667;SDS011;18003;-33.830;151.202;2022-11-20T10:01:23;1.98;;;1.27;;
25667;SDS011;18003;-33.830;151.202;2022-11-20T10:04:06;1.50;;;1.40;;
25667;SDS011;18003;-33.830;151.202;2022-11-20T10:06:39;2.92;;;1.70;;
25667;SDS011;18003;-33.830;151.202;2022-11-20T10:14:46;1.50;;;1.40;;
25667;SDS011;18003;-33.830;151.202;2022-11-20T10:20:14;2.62;;;1.50;;
25667;SDS011;18003;-33.830;151.202;2022-11-20T10:23:03;2.05;;;1.40;;
25667;SDS011;18003;-33.830;151.202;2022-11-20T10:25:56;1.77;;;1.30;;
25667;SDS011;18003;-33.830;151.202;2022-11-20T10:28:56;2.37;;;1.35;;
25667;SDS011;18003;-33.830;151.202;2022-11-20T10:31:30;1.55;;;1.30;;
25667;SDS011;18003;-33.830;151.202;2022-11-20T10:34:01;2.08;;;1.30;;
25667;SDS011;18003;-33.830;151.202;2022-11-20T10:36:40;1.30;;;1.20;;
25667;SDS011;18003;-33.830;151.202;2022-11-20T10:39:11;1.25;;;1.15;;
25667;SDS011;18003;-33.830;151.202;2022-11-20T10:41:42;1.57;;;1.30;;
25667;SDS011;18003;-33.830;151.202;2022-11-20T10:44:15;3.17;;;1.40;;
25667;SDS011;18003;-33.830;151.202;2022-11-20T10:46:47;1.57;;;1.30;;
25667;SDS011;18003;-33.830;151.202;2022-11-20T10:49:19;2.05;;;1.37;;
25667;SDS011;18003;-33.830;151.202;2022-11-20T10:51:52;1.50;;;1.27;;
25667;SDS011;18003;-33.830;151.202;2022-11-20T10:54:30;1.40;;;1.30;;
25667;SDS011;18003;-33.830;151.202;2022-11-20T10:57:19;1.30;;;1.20;;
25667;SDS011;18003;-33.830;151.202;2022-11-20T11:00:07;1.85;;;1.40;;
25667;SDS011;18003;-33.830;151.202;2022-11-20T11:02:44;1.80;;;1.47;;
25667;SDS011;18003;-33.830;151.202;2022-11-20T11:07:51;2.35;;;1.60;;
25667;SDS011;18003;-33.830;151.202;2022-11-20T11:10:35;2.17;;;1.60;;
25667;SDS011;18003;-33.830;151.202;2022-11-20T11:13:19;2.15;;;1.50;;
25667;SDS011;18003;-33.830;151.202;2022-11-20T11:15:40;1.50;;;1.40;;
25667;SDS011;18003;-33.830;151.202;2022-11-20T11:18:10;2.90;;;1.50;;
25667;SDS011;18003;-33.830;151.202;2022-11-20T11:23:22;1.50;;;1.40;;
25667;SDS011;18003;-33.830;151.202;2022-11-20T11:25:55;2.20;;;1.50;;
25667;SDS011;18003;-33.830;151.202;2022-11-20T11:28:23;3.05;;;1.67;;
25667;SDS011;18003;-33.830;151.202;2022-11-20T11:30:58;2.67;;;1.60;;
25667;SDS011;18003;-33.830;151.202;2022-11-20T11:33:28;3.42;;;1.40;;
25667;SDS011;18003;-33.830;151.202;2022-11-20T11:36:01;1.77;;;1.67;;
25667;SDS011;18003;-33.830;151.202;2022-11-20T11:38:38;1.22;;;1.20;;
25667;SDS011;18003;-33.830;151.202;2022-11-20T11:41:15;3.67;;;1.40;;
25667;SDS011;18003;-33.830;151.202;2022-11-20T11:43:55;1.77;;;1.42;;
25667;SDS011;18003;-33.830;151.202;2022-11-20T11:46:39;1.60;;;1.50;;
25667;SDS011;18003;-33.830;151.202;2022-11-20T11:49:16;2.22;;;1.17;;
25667;SDS011;18003;-33.830;151.202;2022-11-20T11:54:53;2.08;;;1.45;;
25667;SDS011;18003;-33.830;151.202;2022-11-20T11:57:24;1.65;;;1.55;;
25667;SDS011;18003;-33.830;151.202;2022-11-20T12:00:03;2.10;;;1.70;;
25667;SDS011;18003;-33.830;151.202;2022-11-20T12:05:27;2.65;;;1.47;;
25667;SDS011;18003;-33.830;151.202;2022-11-20T12:10:41;2.92;;;1.60;;
25667;SDS011;18003;-33.830;151.202;2022-11-20T12:16:04;8.00;;;1.70;;
25667;SDS011;18003;-33.830;151.202;2022-11-20T12:18:35;1.80;;;1.57;;
25667;SDS011;18003;-33.830;151.202;2022-11-20T12:21:19;1.70;;;1.60;;
25667;SDS011;18003;-33.830;151.202;2022-11-20T12:26:42;2.10;;;1.72;;
25667;SDS011;18003;-33.830;151.202;2022-11-20T12:32:19;3.52;;;1.80;;
25667;SDS011;18003;-33.830;151.202;2022-11-20T12:43:19;1.80;;;1.65;;
25667;SDS011;18003;-33.830;151.202;2022-11-20T13:00:10;1.70;;;1.30;;
25667;SDS011;18003;-33.830;151.202;2022-11-20T13:03:00;1.57;;;1.47;;
25667;SDS011;18003;-33.830;151.202;2022-11-20T13:05:40;2.05;;;1.50;;
25667;SDS011;18003;-33.830;151.202;2022-11-20T13:08:18;1.55;;;1.40;;
25667;SDS011;18003;-33.830;151.202;2022-11-20T13:10:49;1.55;;;1.30;;
25667;SDS011;18003;-33.830;151.202;2022-11-20T13:13:33;1.72;;;1.50;;
25667;SDS011;18003;-33.830;151.202;2022-11-20T13:16:24;1.50;;;1.20;;
25667;SDS011;18003;-33.830;151.202;2022-11-20T13:18:50;3.20;;;1.52;;
25667;SDS011;18003;-33.830;151.202;2022-11-20T13:21:22;1.77;;;1.27;;
25667;SDS011;18003;-33.830;151.202;2022-11-20T13:23:53;3.90;;;1.40;;
25667;SDS011;18003;-33.830;151.202;2022-11-20T13:26:25;3.02;;;1.40;;
25667;SDS011;18003;-33.830;151.202;2022-11-20T13:29:15;1.92;;;1.30;;
25667;SDS011;18003;-33.830;151.202;2022-11-20T13:31:46;3.35;;;1.20;;
25667;SDS011;18003;-33.830;151.202;2022-11-20T13:34:24;3.90;;;1.47;;
25667;SDS011;18003;-33.830;151.202;2022-11-20T13:36:56;1.98;;;1.30;;
25667;SDS011;18003;-33.830;151.202;2022-11-20T13:39:28;2.37;;;1.45;;
25667;SDS011;18003;-33.830;151.202;2022-11-20T13:42:20;1.52;;;1.20;;
25667;SDS011;18003;-33.830;151.202;2022-11-20T13:44:37;3.98;;;1.47;;
25667;SDS011;18003;-33.830;151.202;2022-11-20T13:47:27;1.35;;;1.20;;
25667;SDS011;18003;-33.830;151.202;2022-11-20T13:49:53;1.92;;;1.40;;
25667;SDS011;18003;-33.830;151.202;2022-11-20T13:55:20;1.50;;;1.40;;
25667;SDS011;18003;-33.830;151.202;2022-11-20T13:58:04;5.33;;;1.50;;
25667;SDS011;18003;-33.830;151.202;2022-11-20T14:00:46;3.50;;;1.52;;
25667;SDS011;18003;-33.830;151.202;2022-11-20T14:03:29;3.00;;;1.40;;
25667;SDS011;18003;-33.830;151.202;2022-11-20T14:06:04;1.27;;;1.17;;
25667;SDS011;18003;-33.830;151.202;2022-11-20T14:08:39;2.10;;;1.22;;
25667;SDS011;18003;-33.830;151.202;2022-11-20T14:11:17;2.37;;;1.17;;
25667;SDS011;18003;-33.830;151.202;2022-11-20T14:16:47;2.98;;;1.20;;
25667;SDS011;18003;-33.830;151.202;2022-11-20T14:19:28;2.87;;;1.27;;
25667;SDS011;18003;-33.830;151.202;2022-11-20T14:25:37;1.25;;;1.17;;
25667;SDS011;18003;-33.830;151.202;2022-11-20T14:27:39;1.62;;;1.30;;
25667;SDS011;18003;-33.830;151.202;2022-11-20T14:30:18;3.17;;;1.25;;
25667;SDS011;18003;-33.830;151.202;2022-11-20T14:32:49;2.72;;;1.30;;
25667;SDS011;18003;-33.830;151.202;2022-11-20T14:35:33;1.95;;;1.20;;
25667;SDS011;18003;-33.830;151.202;2022-11-20T14:37:58;2.45;;;1.27;;
25667;SDS011;18003;-33.830;151.202;2022-11-20T14:40:29;1.87;;;1.27;;
25667;SDS011;18003;-33.830;151.202;2022-11-20T14:43:02;2.05;;;1.40;;
25667;SDS011;18003;-33.830;151.202;2022-11-20T14:45:40;1.85;;;1.30;;
25667;SDS011;18003;-33.830;151.202;2022-11-20T14:48:13;1.82;;;1.25;;
25667;SDS011;18003;-33.830;151.202;2022-11-20T14:50:44;1.57;;;1.10;;
25667;SDS011;18003;-33.830;151.202;2022-11-20T14:53:21;1.15;;;1.05;;
25667;SDS011;18003;-33.830;151.202;2022-11-20T14:55:53;1.70;;;1.12;;
25667;SDS011;18003;-33.830;151.202;2022-11-20T14:58:22;1.20;;;1.10;;
25667;SDS011;18003;-33.830;151.202;2022-11-20T15:00:54;3.15;;;1.10;;
25667;SDS011;18003;-33.830;151.202;2022-11-20T15:03:37;2.10;;;0.90;;
25667;SDS011;18003;-33.830;151.202;2022-11-20T15:06:07;2.17;;;1.27;;
25667;SDS011;18003;-33.830;151.202;2022-11-20T15:08:39;1.87;;;1.00;;
25667;SDS011;18003;-33.830;151.202;2022-11-20T15:11:17;3.10;;;1.10;;
25667;SDS011;18003;-33.830;151.202;2022-11-20T15:13:48;2.05;;;1.20;;
25667;SDS011;18003;-33.830;151.202;2022-11-20T15:16:19;1.72;;;1.10;;
25667;SDS011;18003;-33.830;151.202;2022-11-20T15:18:51;1.32;;;1.20;;
25667;SDS011;18003;-33.830;151.202;2022-11-20T15:21:22;1.37;;;1.02;;
25667;SDS011;18003;-33.830;151.202;2022-11-20T15:23:52;3.08;;;1.20;;
25667;SDS011;18003;-33.830;151.202;2022-11-20T15:26:27;2.80;;;1.32;;
25667;SDS011;18003;-33.830;151.202;2022-11-20T15:28:55;1.35;;;1.20;;
25667;SDS011;18003;-33.830;151.202;2022-11-20T15:31:25;1.98;;;1.20;;
25667;SDS011;18003;-33.830;151.202;2022-11-20T15:33:55;1.60;;;1.30;;
25667;SDS011;18003;-33.830;151.202;2022-11-20T15:36:25;1.52;;;1.10;;
25667;SDS011;18003;-33.830;151.202;2022-11-20T15:38:58;1.32;;;1.20;;
25667;SDS011;18003;-33.830;151.202;2022-11-20T15:41:29;2.15;;;1.10;;
25667;SDS011;18003;-33.830;151.202;2022-11-20T15:43:59;1.25;;;1.07;;
25667;SDS011;18003;-33.830;151.202;2022-11-20T15:46:29;2.92;;;1.07;;
25667;SDS011;18003;-33.830;151.202;2022-11-20T15:49:01;3.17;;;1.20;;
25667;SDS011;18003;-33.830;151.202;2022-11-20T15:51:37;1.07;;;1.00;;
25667;SDS011;18003;-33.830;151.202;2022-11-20T15:56:39;2.83;;;1.00;;